sensor_id;sensor_type;location;lat;lon;timestamp;temperature;humidity
3528;DHT22;1778;47.966;7.854;2023-05-10T00:00:27;14.00;99.90
3528;DHT22;1778;47.966;7.854;2023-05-10T00:01:29;13.90;99.90
3528;DHT22;1778;47.966;7.854;2023-05-10T00:02:31;13.90;99.90
3528;DHT22;1778;47.966;7.854;2023-05-10T00:03:33;13.90;99.90
3528;DHT22;1778;47.966;7.854;2023-05-10T00:04:34;13.90;99.90
3528;DHT22;1778;47.966;7.854;2023-05-10T00:05:36;13.90;99.90
3528;DHT22;1778;47.966;7.854;2023-05-10T00:06:37;13.90;99.90
3528;DHT22;1778;47.966;7.854;2023-05-10T00:07:39;13.90;99.90
3528;DHT22;1778;47.966;7.854;2023-05-10T00:08:40;13.90;99.90
3528;DHT22;1778;47.966;7.854;2023-05-10T00:09:43;13.90;99.90
3528;DHT22;1778;47.966;7.854;2023-05-10T00:10:44;13.90;99.90
3528;DHT22;1778;47.966;7.854;2023-05-10T00:11:46;13.90;99.90
3528;DHT22;1778;47.966;7.854;2023-05-10T00:12:47;13.90;99.90
3528;DHT22;1778;47.966;7.854;2023-05-10T00:13:49;13.80;99.90
3528;DHT22;1778;47.966;7.854;2023-05-10T00:14:50;13.80;99.90
3528;DHT22;1778;47.966;7.854;2023-05-10T00:15:52;13.80;99.90
3528;DHT22;1778;47.966;7.854;2023-05-10T00:16:53;13.80;99.90
3528;DHT22;1778;47.966;7.854;2023-05-10T00:17:55;13.80;99.90
3528;DHT22;1778;47.966;7.854;2023-05-10T00:19:01;13.80;99.90
3528;DHT22;1778;47.966;7.854;2023-05-10T00:20:02;13.80;99.90
3528;DHT22;1778;47.966;7.854;2023-05-10T00:21:06;13.80;99.90
3528;DHT22;1778;47.966;7.854;2023-05-10T00:22:08;13.80;99.90
3528;DHT22;1778;47.966;7.854;2023-05-10T00:23:09;13.80;99.90
3528;DHT22;1778;47.966;7.854;2023-05-10T00:24:11;13.80;99.90
3528;DHT22;1778;47.966;7.854;2023-05-10T00:25:12;13.80;99.90
3528;DHT22;1778;47.966;7.854;2023-05-10T00:26:14;13.80;99.90
3528;DHT22;1778;47.966;7.854;2023-05-10T00:27:20;13.80;99.90
3528;DHT22;1778;47.966;7.854;2023-05-10T00:28:22;13.90;99.90
3528;DHT22;1778;47.966;7.854;2023-05-10T00:29:23;13.90;99.90
3528;DHT22;1778;47.966;7.854;2023-05-10T00:30:25;13.90;99.90
3528;DHT22;1778;47.966;7.854;2023-05-10T00:31:27;13.90;99.90
3528;DHT22;1778;47.966;7.854;2023-05-10T00:32:28;13.80;99.90
3528;DHT22;1778;47.966;7.854;2023-05-10T00:33:30;13.80;99.90
3528;DHT22;1778;47.966;7.854;2023-05-10T00:34:32;13.80;99.90
3528;DHT22;1778;47.966;7.854;2023-05-10T00:35:33;13.80;99.90
3528;DHT22;1778;47.966;7.854;2023-05-10T00:36:35;13.80;99.90
3528;DHT22;1778;47.966;7.854;2023-05-10T00:37:36;13.80;99.90
3528;DHT22;1778;47.966;7.854;2023-05-10T00:38:38;13.80;99.90
3528;DHT22;1778;47.966;7.854;2023-05-10T00:39:39;13.70;99.90
3528;DHT22;1778;47.966;7.854;2023-05-10T00:40:41;13.70;99.90
3528;DHT22;1778;47.966;7.854;2023-05-10T00:41:49;13.70;99.90
3528;DHT22;1778;47.966;7.854;2023-05-10T00:42:51;13.70;99.90
3528;DHT22;1778;47.966;7.854;2023-05-10T00:43:54;13.70;99.90
3528;DHT22;1778;47.966;7.854;2023-05-10T00:44:57;13.80;99.90
3528;DHT22;1778;47.966;7.854;2023-05-10T00:45:59;13.70;99.90
3528;DHT22;1778;47.966;7.854;2023-05-10T00:47:01;13.70;99.90
3528;DHT22;1778;47.966;7.854;2023-05-10T00:48:03;13.70;99.90
3528;DHT22;1778;47.966;7.854;2023-05-10T00:49:05;13.70;99.90
3528;DHT22;1778;47.966;7.854;2023-05-10T00:50:07;13.70;99.90
3528;DHT22;1778;47.966;7.854;2023-05-10T00:51:10;13.70;99.90
3528;DHT22;1778;47.966;7.854;2023-05-10T00:52:12;13.70;99.90
3528;DHT22;1778;47.966;7.854;2023-05-10T00:53:15;13.70;99.90
3528;DHT22;1778;47.966;7.854;2023-05-10T00:54:17;13.70;99.90
3528;DHT22;1778;47.966;7.854;2023-05-10T00:55:19;13.70;99.90
3528;DHT22;1778;47.966;7.854;2023-05-10T00:56:21;13.70;99.90
3528;DHT22;1778;47.966;7.854;2023-05-10T00:57:24;13.70;99.90
3528;DHT22;1778;47.966;7.854;2023-05-10T00:58:27;13.70;99.90
3528;DHT22;1778;47.966;7.854;2023-05-10T00:59:30;13.70;99.90
3528;DHT22;1778;47.966;7.854;2023-05-10T01:00:33;13.70;99.90
3528;DHT22;1778;47.966;7.854;2023-05-10T01:01:35;13.70;99.90
3528;DHT22;1778;47.966;7.854;2023-05-10T01:02:37;13.70;99.90
3528;DHT22;1778;47.966;7.854;2023-05-10T01:03:39;13.70;99.90
3528;DHT22;1778;47.966;7.854;2023-05-10T01:04:41;13.60;99.90
3528;DHT22;1778;47.966;7.854;2023-05-10T01:05:44;13.70;99.90
3528;DHT22;1778;47.966;7.854;2023-05-10T01:06:45;13.70;99.90
3528;DHT22;1778;47.966;7.854;2023-05-10T01:07:47;13.70;99.90
3528;DHT22;1778;47.966;7.854;2023-05-10T01:08:49;13.70;99.90
3528;DHT22;1778;47.966;7.854;2023-05-10T01:09:51;13.70;99.90
3528;DHT22;1778;47.966;7.854;2023-05-10T01:10:53;13.70;99.90
3528;DHT22;1778;47.966;7.854;2023-05-10T01:11:56;13.60;99.90
3528;DHT22;1778;47.966;7.854;2023-05-10T01:12:59;13.60;99.90
3528;DHT22;1778;47.966;7.854;2023-05-10T01:14:02;13.70;99.90
3528;DHT22;1778;47.966;7.854;2023-05-10T01:15:06;13.60;99.90
3528;DHT22;1778;47.966;7.854;2023-05-10T01:16:09;13.70;99.90
3528;DHT22;1778;47.966;7.854;2023-05-10T01:17:11;13.70;99.90
3528;DHT22;1778;47.966;7.854;2023-05-10T01:18:13;13.70;99.90
3528;DHT22;1778;47.966;7.854;2023-05-10T01:20:23;13.70;99.90
3528;DHT22;1778;47.966;7.854;2023-05-10T01:23:31;13.70;99.90
3528;DHT22;1778;47.966;7.854;2023-05-10T01:24:51;13.70;99.90
3528;DHT22;1778;47.966;7.854;2023-05-10T01:30:01;13.80;99.90
3528;DHT22;1778;47.966;7.854;2023-05-10T01:31:27;13.70;99.90
3528;DHT22;1778;47.966;7.854;2023-05-10T01:34:08;13.60;99.90
3528;DHT22;1778;47.966;7.854;2023-05-10T01:35:43;13.60;99.90
3528;DHT22;1778;47.966;7.854;2023-05-10T01:37:07;13.70;99.90
3528;DHT22;1778;47.966;7.854;2023-05-10T01:38:18;13.80;99.90
3528;DHT22;1778;47.966;7.854;2023-05-10T01:39:32;13.70;99.90
3528;DHT22;1778;47.966;7.854;2023-05-10T01:41:00;13.70;99.90
3528;DHT22;1778;47.966;7.854;2023-05-10T01:42:11;13.70;99.90
3528;DHT22;1778;47.966;7.854;2023-05-10T01:43:26;13.60;99.90
3528;DHT22;1778;47.966;7.854;2023-05-10T01:45:54;13.60;99.90
3528;DHT22;1778;47.966;7.854;2023-05-10T01:47:06;13.60;99.90
3528;DHT22;1778;47.966;7.854;2023-05-10T01:48:10;13.60;99.90
3528;DHT22;1778;47.966;7.854;2023-05-10T01:49:25;13.60;99.90
3528;DHT22;1778;47.966;7.854;2023-05-10T01:50:30;13.60;99.90
3528;DHT22;1778;47.966;7.854;2023-05-10T01:51:39;13.60;99.90
3528;DHT22;1778;47.966;7.854;2023-05-10T01:52:42;13.50;99.90
3528;DHT22;1778;47.966;7.854;2023-05-10T01:53:47;13.60;99.90
3528;DHT22;1778;47.966;7.854;2023-05-10T01:54:55;13.60;99.90
3528;DHT22;1778;47.966;7.854;2023-05-10T01:55:58;13.60;99.90
3528;DHT22;1778;47.966;7.854;2023-05-10T01:57:05;13.60;99.90
3528;DHT22;1778;47.966;7.854;2023-05-10T01:58:10;13.60;99.90
3528;DHT22;1778;47.966;7.854;2023-05-10T01:59:17;13.50;99.90
3528;DHT22;1778;47.966;7.854;2023-05-10T02:00:20;13.50;99.90
3528;DHT22;1778;47.966;7.854;2023-05-10T02:01:26;13.50;99.90
3528;DHT22;1778;47.966;7.854;2023-05-10T02:02:30;13.50;99.90
3528;DHT22;1778;47.966;7.854;2023-05-10T02:03:35;13.50;99.90
3528;DHT22;1778;47.966;7.854;2023-05-10T02:04:39;13.50;99.90
3528;DHT22;1778;47.966;7.854;2023-05-10T02:05:43;13.50;99.90
3528;DHT22;1778;47.966;7.854;2023-05-10T02:06:47;13.50;99.90
3528;DHT22;1778;47.966;7.854;2023-05-10T02:07:49;13.40;99.90
3528;DHT22;1778;47.966;7.854;2023-05-10T02:08:52;13.40;99.90
3528;DHT22;1778;47.966;7.854;2023-05-10T02:09:55;13.50;99.90
3528;DHT22;1778;47.966;7.854;2023-05-10T02:10:58;13.50;99.90
3528;DHT22;1778;47.966;7.854;2023-05-10T02:12:03;13.40;99.90
3528;DHT22;1778;47.966;7.854;2023-05-10T02:13:07;13.50;99.90
3528;DHT22;1778;47.966;7.854;2023-05-10T02:14:11;13.50;99.90
3528;DHT22;1778;47.966;7.854;2023-05-10T02:15:20;13.50;99.90
3528;DHT22;1778;47.966;7.854;2023-05-10T02:16:26;13.50;99.90
3528;DHT22;1778;47.966;7.854;2023-05-10T02:17:28;13.50;99.90
3528;DHT22;1778;47.966;7.854;2023-05-10T02:18:32;13.50;99.90
3528;DHT22;1778;47.966;7.854;2023-05-10T02:19:40;13.50;99.90
3528;DHT22;1778;47.966;7.854;2023-05-10T02:20:44;13.50;99.90
3528;DHT22;1778;47.966;7.854;2023-05-10T02:21:50;13.50;99.90
3528;DHT22;1778;47.966;7.854;2023-05-10T02:22:54;13.50;99.90
3528;DHT22;1778;47.966;7.854;2023-05-10T02:23:57;13.50;99.90
3528;DHT22;1778;47.966;7.854;2023-05-10T02:25:00;13.40;99.90
3528;DHT22;1778;47.966;7.854;2023-05-10T02:26:03;13.60;99.90
3528;DHT22;1778;47.966;7.854;2023-05-10T02:27:08;13.50;99.90
3528;DHT22;1778;47.966;7.854;2023-05-10T02:28:12;13.50;99.90
3528;DHT22;1778;47.966;7.854;2023-05-10T02:29:15;13.50;99.90
3528;DHT22;1778;47.966;7.854;2023-05-10T02:30:18;13.40;99.90
3528;DHT22;1778;47.966;7.854;2023-05-10T02:31:20;13.50;99.90
3528;DHT22;1778;47.966;7.854;2023-05-10T02:32:25;13.50;99.90
3528;DHT22;1778;47.966;7.854;2023-05-10T02:33:28;13.40;99.90
3528;DHT22;1778;47.966;7.854;2023-05-10T02:34:31;13.50;99.90
3528;DHT22;1778;47.966;7.854;2023-05-10T02:35:34;13.50;99.90
3528;DHT22;1778;47.966;7.854;2023-05-10T02:36:38;13.50;99.90
3528;DHT22;1778;47.966;7.854;2023-05-10T02:37:41;13.50;99.90
3528;DHT22;1778;47.966;7.854;2023-05-10T02:38:44;13.50;99.90
3528;DHT22;1778;47.966;7.854;2023-05-10T02:39:50;13.40;99.90
3528;DHT22;1778;47.966;7.854;2023-05-10T02:40:54;13.40;99.90
3528;DHT22;1778;47.966;7.854;2023-05-10T02:41:57;13.40;99.90
3528;DHT22;1778;47.966;7.854;2023-05-10T02:42:59;13.40;99.90
3528;DHT22;1778;47.966;7.854;2023-05-10T02:44:03;13.40;99.90
3528;DHT22;1778;47.966;7.854;2023-05-10T02:45:11;13.40;99.90
3528;DHT22;1778;47.966;7.854;2023-05-10T02:46:13;13.40;99.90
3528;DHT22;1778;47.966;7.854;2023-05-10T02:47:15;13.40;99.90
3528;DHT22;1778;47.966;7.854;2023-05-10T02:48:17;13.40;99.90
3528;DHT22;1778;47.966;7.854;2023-05-10T02:49:19;13.40;99.90
3528;DHT22;1778;47.966;7.854;2023-05-10T02:50:22;13.30;99.90
3528;DHT22;1778;47.966;7.854;2023-05-10T02:51:30;13.40;99.90
3528;DHT22;1778;47.966;7.854;2023-05-10T02:52:44;13.40;99.90
3528;DHT22;1778;47.966;7.854;2023-05-10T02:53:46;13.40;99.90
3528;DHT22;1778;47.966;7.854;2023-05-10T02:54:50;13.30;99.90
3528;DHT22;1778;47.966;7.854;2023-05-10T02:55:52;13.30;99.90
3528;DHT22;1778;47.966;7.854;2023-05-10T02:57:00;13.30;99.90
3528;DHT22;1778;47.966;7.854;2023-05-10T02:58:05;13.30;99.90
3528;DHT22;1778;47.966;7.854;2023-05-10T02:59:06;13.30;99.90
3528;DHT22;1778;47.966;7.854;2023-05-10T03:00:08;13.30;99.90
3528;DHT22;1778;47.966;7.854;2023-05-10T03:01:11;13.20;99.90
3528;DHT22;1778;47.966;7.854;2023-05-10T03:02:13;13.30;99.90
3528;DHT22;1778;47.966;7.854;2023-05-10T03:03:15;13.20;99.90
3528;DHT22;1778;47.966;7.854;2023-05-10T03:04:17;13.30;99.90
3528;DHT22;1778;47.966;7.854;2023-05-10T03:05:19;13.30;99.90
3528;DHT22;1778;47.966;7.854;2023-05-10T03:06:21;13.30;99.90
3528;DHT22;1778;47.966;7.854;2023-05-10T03:07:23;13.30;99.90
3528;DHT22;1778;47.966;7.854;2023-05-10T03:08:24;13.30;99.90
3528;DHT22;1778;47.966;7.854;2023-05-10T03:09:27;13.30;99.90
3528;DHT22;1778;47.966;7.854;2023-05-10T03:10:29;13.30;99.90
3528;DHT22;1778;47.966;7.854;2023-05-10T03:13:06;13.40;99.90
3528;DHT22;1778;47.966;7.854;2023-05-10T03:17:06;13.20;99.90
3528;DHT22;1778;47.966;7.854;2023-05-10T03:18:18;13.30;99.90
3528;DHT22;1778;47.966;7.854;2023-05-10T03:19:47;13.30;99.90
3528;DHT22;1778;47.966;7.854;2023-05-10T03:20:57;13.30;99.90
3528;DHT22;1778;47.966;7.854;2023-05-10T03:22:04;13.20;99.90
3528;DHT22;1778;47.966;7.854;2023-05-10T03:24:28;13.20;99.90
3528;DHT22;1778;47.966;7.854;2023-05-10T03:25:32;13.20;99.90
3528;DHT22;1778;47.966;7.854;2023-05-10T03:26:37;13.10;99.90
3528;DHT22;1778;47.966;7.854;2023-05-10T03:27:47;13.20;99.90
3528;DHT22;1778;47.966;7.854;2023-05-10T03:28:49;13.20;99.90
3528;DHT22;1778;47.966;7.854;2023-05-10T03:29:53;13.20;99.90
3528;DHT22;1778;47.966;7.854;2023-05-10T03:30:55;13.20;99.90
3528;DHT22;1778;47.966;7.854;2023-05-10T03:31:59;13.20;99.90
3528;DHT22;1778;47.966;7.854;2023-05-10T03:33:05;13.20;99.90
3528;DHT22;1778;47.966;7.854;2023-05-10T03:34:13;13.20;99.90
3528;DHT22;1778;47.966;7.854;2023-05-10T03:35:15;13.20;99.90
3528;DHT22;1778;47.966;7.854;2023-05-10T03:36:19;13.10;99.90
3528;DHT22;1778;47.966;7.854;2023-05-10T03:37:20;13.10;99.90
3528;DHT22;1778;47.966;7.854;2023-05-10T03:38:22;13.10;99.90
3528;DHT22;1778;47.966;7.854;2023-05-10T03:39:24;13.20;99.90
3528;DHT22;1778;47.966;7.854;2023-05-10T03:40:30;13.20;99.90
3528;DHT22;1778;47.966;7.854;2023-05-10T03:41:33;13.20;99.90
3528;DHT22;1778;47.966;7.854;2023-05-10T03:42:34;13.10;99.90
3528;DHT22;1778;47.966;7.854;2023-05-10T03:43:36;13.10;99.90
3528;DHT22;1778;47.966;7.854;2023-05-10T03:44:39;13.10;99.90
3528;DHT22;1778;47.966;7.854;2023-05-10T03:45:40;13.10;99.90
3528;DHT22;1778;47.966;7.854;2023-05-10T03:46:42;13.10;99.90
3528;DHT22;1778;47.966;7.854;2023-05-10T03:47:44;13.10;99.90
3528;DHT22;1778;47.966;7.854;2023-05-10T03:48:45;13.10;99.90
3528;DHT22;1778;47.966;7.854;2023-05-10T03:49:47;13.10;99.90
3528;DHT22;1778;47.966;7.854;2023-05-10T03:50:48;13.00;99.90
3528;DHT22;1778;47.966;7.854;2023-05-10T03:51:50;13.00;99.90
3528;DHT22;1778;47.966;7.854;2023-05-10T03:52:52;13.00;99.90
3528;DHT22;1778;47.966;7.854;2023-05-10T03:53:55;13.00;99.90
3528;DHT22;1778;47.966;7.854;2023-05-10T03:54:57;13.00;99.90
3528;DHT22;1778;47.966;7.854;2023-05-10T03:55:58;13.00;99.90
3528;DHT22;1778;47.966;7.854;2023-05-10T03:57:00;13.00;99.90
3528;DHT22;1778;47.966;7.854;2023-05-10T03:58:03;12.90;99.90
3528;DHT22;1778;47.966;7.854;2023-05-10T03:59:04;12.90;99.90
3528;DHT22;1778;47.966;7.854;2023-05-10T04:00:09;12.90;99.90
3528;DHT22;1778;47.966;7.854;2023-05-10T04:01:14;12.90;99.90
3528;DHT22;1778;47.966;7.854;2023-05-10T04:02:16;12.90;99.90
3528;DHT22;1778;47.966;7.854;2023-05-10T04:03:18;12.90;99.90
3528;DHT22;1778;47.966;7.854;2023-05-10T04:04:22;12.90;99.90
3528;DHT22;1778;47.966;7.854;2023-05-10T04:05:24;12.90;99.90
3528;DHT22;1778;47.966;7.854;2023-05-10T04:06:26;12.80;99.90
3528;DHT22;1778;47.966;7.854;2023-05-10T04:07:29;12.80;99.90
3528;DHT22;1778;47.966;7.854;2023-05-10T04:08:30;12.80;99.90
3528;DHT22;1778;47.966;7.854;2023-05-10T04:09:32;12.80;99.90
3528;DHT22;1778;47.966;7.854;2023-05-10T04:10:34;12.70;99.90
3528;DHT22;1778;47.966;7.854;2023-05-10T04:11:35;12.70;99.90
3528;DHT22;1778;47.966;7.854;2023-05-10T04:12:37;12.70;99.90
3528;DHT22;1778;47.966;7.854;2023-05-10T04:13:38;12.70;99.90
3528;DHT22;1778;47.966;7.854;2023-05-10T04:14:40;12.60;99.90
3528;DHT22;1778;47.966;7.854;2023-05-10T04:15:41;12.60;99.90
3528;DHT22;1778;47.966;7.854;2023-05-10T04:16:44;12.70;99.90
3528;DHT22;1778;47.966;7.854;2023-05-10T04:17:46;12.70;99.90
3528;DHT22;1778;47.966;7.854;2023-05-10T04:18:48;12.70;99.90
3528;DHT22;1778;47.966;7.854;2023-05-10T04:19:49;12.60;99.90
3528;DHT22;1778;47.966;7.854;2023-05-10T04:20:54;12.60;99.90
3528;DHT22;1778;47.966;7.854;2023-05-10T04:21:55;12.60;99.90
3528;DHT22;1778;47.966;7.854;2023-05-10T04:22:57;12.60;99.90
3528;DHT22;1778;47.966;7.854;2023-05-10T04:23:59;12.60;99.90
3528;DHT22;1778;47.966;7.854;2023-05-10T04:25:00;12.60;99.90
3528;DHT22;1778;47.966;7.854;2023-05-10T04:26:02;12.60;99.90
3528;DHT22;1778;47.966;7.854;2023-05-10T04:27:04;12.60;99.90
3528;DHT22;1778;47.966;7.854;2023-05-10T04:28:07;12.60;99.90
3528;DHT22;1778;47.966;7.854;2023-05-10T04:29:08;12.70;99.90
3528;DHT22;1778;47.966;7.854;2023-05-10T04:30:10;12.70;99.90
3528;DHT22;1778;47.966;7.854;2023-05-10T04:31:13;12.70;99.90
3528;DHT22;1778;47.966;7.854;2023-05-10T04:32:14;12.70;99.90
3528;DHT22;1778;47.966;7.854;2023-05-10T04:33:17;12.70;99.90
3528;DHT22;1778;47.966;7.854;2023-05-10T04:34:20;12.70;99.90
3528;DHT22;1778;47.966;7.854;2023-05-10T04:35:22;12.60;99.90
3528;DHT22;1778;47.966;7.854;2023-05-10T04:36:24;12.60;99.90
3528;DHT22;1778;47.966;7.854;2023-05-10T04:37:25;12.70;99.90
3528;DHT22;1778;47.966;7.854;2023-05-10T04:38:27;12.70;99.90
3528;DHT22;1778;47.966;7.854;2023-05-10T04:39:29;12.70;99.90
3528;DHT22;1778;47.966;7.854;2023-05-10T04:40:31;12.70;99.90
3528;DHT22;1778;47.966;7.854;2023-05-10T04:41:32;12.70;99.90
3528;DHT22;1778;47.966;7.854;2023-05-10T04:42:34;12.70;99.90
3528;DHT22;1778;47.966;7.854;2023-05-10T04:43:36;12.70;99.90
3528;DHT22;1778;47.966;7.854;2023-05-10T04:44:38;12.70;99.90
3528;DHT22;1778;47.966;7.854;2023-05-10T04:45:39;12.80;99.90
3528;DHT22;1778;47.966;7.854;2023-05-10T04:46:41;12.70;99.90
3528;DHT22;1778;47.966;7.854;2023-05-10T04:47:42;12.70;99.90
3528;DHT22;1778;47.966;7.854;2023-05-10T04:48:44;12.70;99.90
3528;DHT22;1778;47.966;7.854;2023-05-10T04:49:45;12.70;99.90
3528;DHT22;1778;47.966;7.854;2023-05-10T04:50:47;12.80;99.90
3528;DHT22;1778;47.966;7.854;2023-05-10T04:51:48;12.70;99.90
3528;DHT22;1778;47.966;7.854;2023-05-10T04:52:50;12.70;99.90
3528;DHT22;1778;47.966;7.854;2023-05-10T04:53:53;12.70;99.90
3528;DHT22;1778;47.966;7.854;2023-05-10T04:55:06;12.70;99.90
3528;DHT22;1778;47.966;7.854;2023-05-10T04:56:10;12.80;99.90
3528;DHT22;1778;47.966;7.854;2023-05-10T04:57:12;12.80;99.90
3528;DHT22;1778;47.966;7.854;2023-05-10T04:58:13;12.80;99.90
3528;DHT22;1778;47.966;7.854;2023-05-10T04:59:15;12.80;99.90
3528;DHT22;1778;47.966;7.854;2023-05-10T05:00:17;12.80;99.90
3528;DHT22;1778;47.966;7.854;2023-05-10T05:01:19;12.80;99.90
3528;DHT22;1778;47.966;7.854;2023-05-10T05:02:21;12.80;99.90
3528;DHT22;1778;47.966;7.854;2023-05-10T05:03:23;12.90;99.90
3528;DHT22;1778;47.966;7.854;2023-05-10T05:04:24;12.90;99.90
3528;DHT22;1778;47.966;7.854;2023-05-10T05:05:26;12.90;99.90
3528;DHT22;1778;47.966;7.854;2023-05-10T05:06:27;12.90;99.90
3528;DHT22;1778;47.966;7.854;2023-05-10T05:07:30;12.90;99.90
3528;DHT22;1778;47.966;7.854;2023-05-10T05:08:32;12.90;99.90
3528;DHT22;1778;47.966;7.854;2023-05-10T05:09:33;12.90;99.90
3528;DHT22;1778;47.966;7.854;2023-05-10T05:10:35;13.00;99.90
3528;DHT22;1778;47.966;7.854;2023-05-10T05:11:37;13.00;99.90
3528;DHT22;1778;47.966;7.854;2023-05-10T05:12:39;13.00;99.90
3528;DHT22;1778;47.966;7.854;2023-05-10T05:13:41;13.00;99.90
3528;DHT22;1778;47.966;7.854;2023-05-10T05:14:42;13.00;99.90
3528;DHT22;1778;47.966;7.854;2023-05-10T05:15:44;13.00;99.90
3528;DHT22;1778;47.966;7.854;2023-05-10T05:16:45;13.00;99.90
3528;DHT22;1778;47.966;7.854;2023-05-10T05:17:47;13.00;99.90
3528;DHT22;1778;47.966;7.854;2023-05-10T05:18:49;13.00;99.90
3528;DHT22;1778;47.966;7.854;2023-05-10T05:19:50;13.00;99.90
3528;DHT22;1778;47.966;7.854;2023-05-10T05:20:52;13.00;99.90
3528;DHT22;1778;47.966;7.854;2023-05-10T05:21:53;13.10;99.90
3528;DHT22;1778;47.966;7.854;2023-05-10T05:22:55;13.00;99.90
3528;DHT22;1778;47.966;7.854;2023-05-10T05:23:56;13.10;99.90
3528;DHT22;1778;47.966;7.854;2023-05-10T05:24:58;13.10;99.90
3528;DHT22;1778;47.966;7.854;2023-05-10T05:25:59;13.10;99.90
3528;DHT22;1778;47.966;7.854;2023-05-10T05:27:01;13.10;99.90
3528;DHT22;1778;47.966;7.854;2023-05-10T05:28:03;13.10;99.90
3528;DHT22;1778;47.966;7.854;2023-05-10T05:29:04;13.10;99.90
3528;DHT22;1778;47.966;7.854;2023-05-10T05:30:06;13.20;99.90
3528;DHT22;1778;47.966;7.854;2023-05-10T05:31:08;13.20;99.90
3528;DHT22;1778;47.966;7.854;2023-05-10T05:32:10;13.20;99.90
3528;DHT22;1778;47.966;7.854;2023-05-10T05:33:15;13.20;99.90
3528;DHT22;1778;47.966;7.854;2023-05-10T05:34:17;13.30;99.90
3528;DHT22;1778;47.966;7.854;2023-05-10T05:35:18;13.40;99.90
3528;DHT22;1778;47.966;7.854;2023-05-10T05:36:19;13.30;99.90
3528;DHT22;1778;47.966;7.854;2023-05-10T05:37:21;13.40;99.90
3528;DHT22;1778;47.966;7.854;2023-05-10T05:38:23;13.40;99.90
3528;DHT22;1778;47.966;7.854;2023-05-10T05:39:25;13.40;99.90
3528;DHT22;1778;47.966;7.854;2023-05-10T05:40:26;13.40;99.90
3528;DHT22;1778;47.966;7.854;2023-05-10T05:41:28;13.40;99.90
3528;DHT22;1778;47.966;7.854;2023-05-10T05:42:31;13.40;99.90
3528;DHT22;1778;47.966;7.854;2023-05-10T05:43:32;13.40;99.90
3528;DHT22;1778;47.966;7.854;2023-05-10T05:44:38;13.50;99.90
3528;DHT22;1778;47.966;7.854;2023-05-10T05:45:39;13.50;99.90
3528;DHT22;1778;47.966;7.854;2023-05-10T05:46:41;13.50;99.90
3528;DHT22;1778;47.966;7.854;2023-05-10T05:47:42;13.50;99.90
3528;DHT22;1778;47.966;7.854;2023-05-10T05:48:44;13.60;99.90
3528;DHT22;1778;47.966;7.854;2023-05-10T05:49:45;13.60;99.90
3528;DHT22;1778;47.966;7.854;2023-05-10T05:50:47;13.60;99.90
3528;DHT22;1778;47.966;7.854;2023-05-10T05:51:49;13.60;99.90
3528;DHT22;1778;47.966;7.854;2023-05-10T05:52:51;13.60;99.90
3528;DHT22;1778;47.966;7.854;2023-05-10T05:53:53;13.60;99.90
3528;DHT22;1778;47.966;7.854;2023-05-10T05:54:54;13.60;99.90
3528;DHT22;1778;47.966;7.854;2023-05-10T05:55:57;13.60;99.90
3528;DHT22;1778;47.966;7.854;2023-05-10T05:57:00;13.60;99.90
3528;DHT22;1778;47.966;7.854;2023-05-10T05:58:02;13.50;99.90
3528;DHT22;1778;47.966;7.854;2023-05-10T05:59:03;13.50;99.90
3528;DHT22;1778;47.966;7.854;2023-05-10T06:00:05;13.50;99.90
3528;DHT22;1778;47.966;7.854;2023-05-10T06:01:12;13.60;99.90
3528;DHT22;1778;47.966;7.854;2023-05-10T06:02:14;13.60;99.90
3528;DHT22;1778;47.966;7.854;2023-05-10T06:03:15;13.50;99.90
3528;DHT22;1778;47.966;7.854;2023-05-10T06:04:17;13.50;99.90
3528;DHT22;1778;47.966;7.854;2023-05-10T06:05:19;13.50;99.90
3528;DHT22;1778;47.966;7.854;2023-05-10T06:06:21;13.50;99.90
3528;DHT22;1778;47.966;7.854;2023-05-10T06:07:23;13.50;99.90
3528;DHT22;1778;47.966;7.854;2023-05-10T06:08:24;13.40;99.90
3528;DHT22;1778;47.966;7.854;2023-05-10T06:09:25;13.40;99.90
3528;DHT22;1778;47.966;7.854;2023-05-10T06:10:27;13.40;99.90
3528;DHT22;1778;47.966;7.854;2023-05-10T06:11:29;13.40;99.90
3528;DHT22;1778;47.966;7.854;2023-05-10T06:12:33;13.40;99.90
3528;DHT22;1778;47.966;7.854;2023-05-10T06:13:34;13.30;99.90
3528;DHT22;1778;47.966;7.854;2023-05-10T06:14:36;13.40;99.90
3528;DHT22;1778;47.966;7.854;2023-05-10T06:15:38;13.40;99.90
3528;DHT22;1778;47.966;7.854;2023-05-10T06:16:42;13.40;99.90
3528;DHT22;1778;47.966;7.854;2023-05-10T06:17:43;13.40;99.90
3528;DHT22;1778;47.966;7.854;2023-05-10T06:18:48;13.40;99.90
3528;DHT22;1778;47.966;7.854;2023-05-10T06:19:49;13.40;99.90
3528;DHT22;1778;47.966;7.854;2023-05-10T06:20:54;13.40;99.90
3528;DHT22;1778;47.966;7.854;2023-05-10T06:21:55;13.40;99.90
3528;DHT22;1778;47.966;7.854;2023-05-10T06:22:57;13.40;99.90
3528;DHT22;1778;47.966;7.854;2023-05-10T06:23:59;13.40;99.90
3528;DHT22;1778;47.966;7.854;2023-05-10T06:25:01;13.40;99.90
3528;DHT22;1778;47.966;7.854;2023-05-10T06:26:03;13.40;99.90
3528;DHT22;1778;47.966;7.854;2023-05-10T06:27:05;13.50;99.90
3528;DHT22;1778;47.966;7.854;2023-05-10T06:28:07;13.50;99.90
3528;DHT22;1778;47.966;7.854;2023-05-10T06:29:08;13.50;99.90
3528;DHT22;1778;47.966;7.854;2023-05-10T06:30:10;13.40;99.90
3528;DHT22;1778;47.966;7.854;2023-05-10T06:31:13;13.50;99.90
3528;DHT22;1778;47.966;7.854;2023-05-10T06:32:15;13.50;99.90
3528;DHT22;1778;47.966;7.854;2023-05-10T06:33:17;13.50;99.90
3528;DHT22;1778;47.966;7.854;2023-05-10T06:34:19;13.50;99.90
3528;DHT22;1778;47.966;7.854;2023-05-10T06:35:20;13.50;99.90
3528;DHT22;1778;47.966;7.854;2023-05-10T06:36:22;13.50;99.90
3528;DHT22;1778;47.966;7.854;2023-05-10T06:37:25;13.60;99.90
3528;DHT22;1778;47.966;7.854;2023-05-10T06:38:27;13.50;99.90
3528;DHT22;1778;47.966;7.854;2023-05-10T06:39:29;13.60;99.90
3528;DHT22;1778;47.966;7.854;2023-05-10T06:40:30;13.70;99.90
3528;DHT22;1778;47.966;7.854;2023-05-10T06:41:32;13.70;99.90
3528;DHT22;1778;47.966;7.854;2023-05-10T06:42:33;13.70;99.90
3528;DHT22;1778;47.966;7.854;2023-05-10T06:43:36;13.80;99.90
3528;DHT22;1778;47.966;7.854;2023-05-10T06:44:41;13.80;99.90
3528;DHT22;1778;47.966;7.854;2023-05-10T06:45:43;13.80;99.90
3528;DHT22;1778;47.966;7.854;2023-05-10T06:46:44;13.90;99.90
3528;DHT22;1778;47.966;7.854;2023-05-10T06:47:46;13.90;99.90
3528;DHT22;1778;47.966;7.854;2023-05-10T06:48:47;13.90;99.90
3528;DHT22;1778;47.966;7.854;2023-05-10T06:49:49;14.00;99.90
3528;DHT22;1778;47.966;7.854;2023-05-10T06:50:50;14.10;99.90
3528;DHT22;1778;47.966;7.854;2023-05-10T06:51:52;14.10;99.90
3528;DHT22;1778;47.966;7.854;2023-05-10T06:52:54;14.10;99.90
3528;DHT22;1778;47.966;7.854;2023-05-10T06:53:56;14.20;99.90
3528;DHT22;1778;47.966;7.854;2023-05-10T06:54:58;14.30;99.90
3528;DHT22;1778;47.966;7.854;2023-05-10T06:55:59;14.20;99.90
3528;DHT22;1778;47.966;7.854;2023-05-10T06:57:01;14.30;99.90
3528;DHT22;1778;47.966;7.854;2023-05-10T06:58:09;14.20;99.90
3528;DHT22;1778;47.966;7.854;2023-05-10T06:59:10;14.20;99.90
3528;DHT22;1778;47.966;7.854;2023-05-10T07:00:12;14.30;99.90
3528;DHT22;1778;47.966;7.854;2023-05-10T07:01:14;14.30;99.90
3528;DHT22;1778;47.966;7.854;2023-05-10T07:02:15;14.30;99.90
3528;DHT22;1778;47.966;7.854;2023-05-10T07:03:17;14.30;99.90
3528;DHT22;1778;47.966;7.854;2023-05-10T07:04:19;14.30;99.90
3528;DHT22;1778;47.966;7.854;2023-05-10T07:05:21;14.20;99.90
3528;DHT22;1778;47.966;7.854;2023-05-10T07:06:23;14.30;99.90
3528;DHT22;1778;47.966;7.854;2023-05-10T07:07:34;14.30;99.90
3528;DHT22;1778;47.966;7.854;2023-05-10T07:08:35;14.40;99.90